createdAt,value
2019-05-11T00:03:38.776Z,91.7
2019-05-11T00:08:38.336Z,90.9
2019-05-11T00:13:38.062Z,91.1
2019-05-11T00:18:37.754Z,91.7
2019-05-11T00:23:37.427Z,91.7
2019-05-11T00:28:37.143Z,91.5
2019-05-11T00:33:36.843Z,91.8
2019-05-11T00:38:36.621Z,91.1
2019-05-11T00:43:36.017Z,91.2
2019-05-11T00:48:35.558Z,90.6
2019-05-11T00:53:35.017Z,92
2019-05-11T00:58:34.633Z,92
2019-05-11T01:03:34.245Z,91.6
2019-05-11T01:08:33.479Z,91.8
2019-05-11T01:13:33.158Z,91.1
2019-05-11T01:18:33.051Z,92
2019-05-11T01:23:32.450Z,92.1
2019-05-11T01:28:31.914Z,91.8
2019-05-11T01:33:31.663Z,92.7
2019-05-11T01:38:31.175Z,92.8
2019-05-11T01:43:30.957Z,93
2019-05-11T01:48:30.590Z,91.8
2019-05-11T01:53:30.192Z,92.8
2019-05-11T01:58:29.991Z,92.3
2019-05-11T02:03:29.540Z,92.8
2019-05-11T02:08:29.015Z,92.2
2019-05-11T02:13:28.697Z,92.6
2019-05-11T02:18:28.474Z,91.8
2019-05-11T02:23:28.179Z,93.2
2019-05-11T02:28:27.771Z,92.6
2019-05-11T02:33:27.639Z,91.8
2019-05-11T02:38:27.084Z,91.8
2019-05-11T02:43:26.928Z,94.6
2019-05-11T02:48:26.740Z,92.7
2019-05-11T02:53:26.097Z,92.7
2019-05-11T02:58:25.641Z,92.9
2019-05-11T03:03:25.186Z,93
2019-05-11T03:08:25.002Z,92.4
2019-05-11T03:13:24.736Z,93
2019-05-11T03:18:24.456Z,92.8
2019-05-11T03:23:24.169Z,93
2019-05-11T03:28:23.898Z,92.6
2019-05-11T03:33:23.704Z,92.3
2019-05-11T03:38:23.140Z,92
2019-05-11T03:43:22.965Z,91.7
2019-05-11T03:48:23.020Z,91.1
2019-05-11T03:53:22.466Z,90.7
2019-05-11T03:58:26.954Z,86.1
2019-05-11T04:03:26.262Z,83.5
2019-05-11T04:08:28.525Z,74.1
2019-05-11T04:13:28.563Z,66.7
2019-05-11T04:18:29.325Z,62.6
2019-05-11T04:23:29.412Z,63.6
2019-05-11T04:28:29.756Z,64.5
2019-05-11T04:33:33.597Z,56.3
2019-05-11T04:38:31.690Z,58.3
2019-05-11T04:43:31.074Z,61.8
2019-05-11T04:48:31.363Z,62
2019-05-11T04:53:31.005Z,60.7
2019-05-11T04:58:31.334Z,59.2
2019-05-11T05:03:41.437Z,58.3
2019-05-11T05:08:43.581Z,59.8
2019-05-11T05:13:43.280Z,60.9
2019-05-11T05:18:43.452Z,59.7
2019-05-11T05:23:43.488Z,58.2
2019-05-11T05:28:46.103Z,59.5
2019-05-11T05:33:45.783Z,61.3
2019-05-11T05:38:46.443Z,62.4
2019-05-11T05:43:46.755Z,57.6
2019-05-11T05:48:46.303Z,57.2
2019-05-11T05:53:45.303Z,60.7
2019-05-11T05:58:44.985Z,59.6
2019-05-11T06:03:44.182Z,60.5
2019-05-11T06:08:44.127Z,62.2
2019-05-11T06:13:46.121Z,60.9
2019-05-11T06:18:45.269Z,62.3
2019-05-11T06:23:45.092Z,63.1
2019-05-11T06:28:45.003Z,59.7
2019-05-11T06:33:44.426Z,61.8
2019-05-11T06:38:44.385Z,60.5
2019-05-11T06:44:02.257Z,60.3
2019-05-11T06:49:00.010Z,58.6
2019-05-11T06:54:00.102Z,57.7
2019-05-11T06:59:00.630Z,53.4
2019-05-11T07:04:00.933Z,54.7
2019-05-11T07:09:01.602Z,54.6
2019-05-11T07:14:00.235Z,53.1
2019-05-11T07:19:00.072Z,51.7
2019-05-11T07:24:00.281Z,51.5
2019-05-11T07:29:00.609Z,51.4
2019-05-11T07:33:59.586Z,51.4
2019-05-11T07:39:00.543Z,50.9
2019-05-11T07:44:00.121Z,53.7
2019-05-11T07:48:59.908Z,46.8
2019-05-11T07:54:00.063Z,45.5
2019-05-11T07:58:59.572Z,47.5
2019-05-11T08:03:59.654Z,48.4
2019-05-11T08:08:59.121Z,45.4
2019-05-11T08:13:58.829Z,46.5
2019-05-11T08:18:59.221Z,48.9
2019-05-11T08:23:59.059Z,50.4
2019-05-11T08:28:59.986Z,48.4
2019-05-11T08:33:59.873Z,46.4
2019-05-11T08:38:59.391Z,43.8
2019-05-11T08:43:59.126Z,44.6
2019-05-11T08:48:59.772Z,43.2
2019-05-11T08:53:59.334Z,50
2019-05-11T08:59:00.285Z,47.2
2019-05-11T09:03:59.427Z,43.9
2019-05-11T09:08:58.774Z,49.7
2019-05-11T09:13:59.962Z,43.3
2019-05-11T09:19:00.248Z,40.1
2019-05-11T09:23:59.078Z,45.3
2019-05-11T09:28:59.271Z,43
2019-05-11T09:33:59.560Z,43.3
2019-05-11T09:38:59.481Z,42
2019-05-11T09:43:59.025Z,39.5
2019-05-11T09:48:59.289Z,38.8
2019-05-11T09:53:59.051Z,40.8
2019-05-11T09:58:58.445Z,38.5
2019-05-11T10:03:58.765Z,37.7
2019-05-11T10:08:58.213Z,35.9
2019-05-11T10:13:58.029Z,47.2
2019-05-11T10:18:59.439Z,35.7
2019-05-11T10:23:59.158Z,44.1
2019-05-11T10:28:59.138Z,39.2
2019-05-11T10:33:58.604Z,38.2
2019-05-11T10:38:59.719Z,39.1
2019-05-11T10:43:59.712Z,41.5
2019-05-11T10:48:59.462Z,35.4
2019-05-11T10:53:58.882Z,36.5
2019-05-11T10:58:58.921Z,35.3
2019-05-11T11:03:59.270Z,37.5
2019-05-11T11:08:58.377Z,35.5
2019-05-11T11:13:58.825Z,33.3
2019-05-11T11:18:59.424Z,39.3
2019-05-11T11:24:00.352Z,40
2019-05-11T11:29:00.356Z,30.3
2019-05-11T11:34:00.330Z,32.8
2019-05-11T11:39:00.849Z,33.4
2019-05-11T11:44:01.337Z,32.8
2019-05-11T11:49:01.658Z,30.1
2019-05-11T11:53:59.699Z,35.3
2019-05-11T11:58:58.457Z,32
2019-05-11T12:03:58.463Z,31.5
2019-05-11T12:09:00.473Z,31.7
2019-05-11T12:13:59.863Z,29.7
2019-05-11T12:19:00.897Z,29.4
2019-05-11T12:24:00.513Z,33.8
2019-05-11T12:29:00.988Z,34.5
2019-05-11T12:34:00.552Z,28.6
2019-05-11T12:39:04.188Z,31.3
2019-05-11T12:44:02.794Z,30
2019-05-11T12:49:01.775Z,33.9
2019-05-11T12:54:00.632Z,36
2019-05-11T12:59:01.352Z,34.3
2019-05-11T13:04:01.738Z,27.4
2019-05-11T13:09:00.363Z,32.6
2019-05-11T13:13:59.594Z,32.1
2019-05-11T13:18:58.967Z,30.2
2019-05-11T13:23:59.250Z,28.2
2019-05-11T13:28:58.768Z,28.2
2019-05-11T13:33:58.857Z,33.5
2019-05-11T13:38:59.003Z,32.2
2019-05-11T13:43:58.452Z,33.9
2019-05-11T13:48:58.298Z,34.6
2019-05-11T13:53:58.805Z,35
2019-05-11T14:00:08.347Z,35
2019-05-11T14:05:01.777Z,36.4
2019-05-11T14:10:01.116Z,30.9
2019-05-11T14:15:00.448Z,32.9
2019-05-11T14:20:00.155Z,34.1
2019-05-11T14:24:59.653Z,33
2019-05-11T14:30:03.539Z,35.5
2019-05-11T14:35:03.320Z,34.7
2019-05-11T14:40:02.769Z,36.7
2019-05-11T14:45:02.524Z,34.2
2019-05-11T14:50:03.247Z,36.3
2019-05-11T14:55:03.828Z,34.1
2019-05-11T15:00:03.564Z,32.7
2019-05-11T15:05:03.668Z,36.5
2019-05-11T15:10:03.418Z,31.6
2019-05-11T15:15:02.766Z,37.3
2019-05-11T15:20:02.211Z,38.8
2019-05-11T15:25:02.106Z,35
2019-05-11T15:30:01.627Z,32.5
2019-05-11T15:35:01.001Z,38.5
2019-05-11T15:40:00.489Z,35.7
2019-05-11T15:45:00.142Z,39
2019-05-11T15:49:59.946Z,36.6
2019-05-11T15:54:59.570Z,45
2019-05-11T15:59:58.938Z,39.2
2019-05-11T16:04:58.492Z,43
2019-05-11T16:09:58.104Z,43.1
2019-05-11T16:14:58.207Z,45.3
2019-05-11T16:19:58.302Z,46.2
2019-05-11T16:24:58.259Z,43.3
2019-05-11T16:29:57.818Z,42.3
2019-05-11T16:35:00.427Z,42.5
2019-05-11T16:39:59.313Z,44.4
2019-05-11T16:44:58.496Z,46.7
2019-05-11T16:49:58.398Z,48
2019-05-11T16:54:58.602Z,50.7
2019-05-11T16:59:58.766Z,51.4
2019-05-11T17:04:58.412Z,54.1
2019-05-11T17:09:58.074Z,55.3
2019-05-11T17:14:58.682Z,56.7
2019-05-11T17:19:59.149Z,58
2019-05-11T17:24:59.224Z,58.5
2019-05-11T17:29:59.572Z,59.4
2019-05-11T17:34:58.757Z,60.4
2019-05-11T17:39:59.287Z,60.9
2019-05-11T17:44:59.229Z,60.6
2019-05-11T17:50:04.153Z,62.8
2019-05-11T17:55:02.712Z,63
2019-05-11T18:00:02.585Z,63.8
2019-05-11T18:05:02.013Z,65
2019-05-11T18:10:01.490Z,64.9
2019-05-11T18:15:01.079Z,66.9
2019-05-11T18:20:18.488Z,67.5
2019-05-11T18:25:19.290Z,67.4
2019-05-11T18:30:18.363Z,67.8
2019-05-11T18:35:19.943Z,65.8
2019-05-11T18:40:19.460Z,66.9
2019-05-11T18:45:19.572Z,69.1
2019-05-11T18:50:31.432Z,69.1
2019-05-11T18:55:29.135Z,68.9
2019-05-11T19:00:28.869Z,68.7
2019-05-11T19:05:29.520Z,70.3
2019-05-11T19:10:28.895Z,68.6
2019-05-11T19:15:28.288Z,68.8
2019-05-11T19:20:28.663Z,70.4
2019-05-11T19:25:28.188Z,69.2
2019-05-11T19:30:28.053Z,71.1
2019-05-11T19:35:28.922Z,71.9
2019-05-11T19:40:28.126Z,72.8
2019-05-11T19:45:29.999Z,71.4
2019-05-11T19:50:29.590Z,70.8
2019-05-11T19:55:29.015Z,71.8
2019-05-11T20:00:28.764Z,70.9
2019-05-11T20:05:29.112Z,70.7
2019-05-11T20:10:28.615Z,69.3
2019-05-11T20:15:28.375Z,67.6
2019-05-11T20:20:28.717Z,67.5
2019-05-11T20:25:29.204Z,69.6
2019-05-11T20:30:28.419Z,66.1
2019-05-11T20:35:28.282Z,66.2
2019-05-11T20:40:28.918Z,68.5
2019-05-11T20:45:28.825Z,71.2
2019-05-11T20:50:28.298Z,72.2
2019-05-11T20:55:28.731Z,71.9
2019-05-11T21:00:28.336Z,71.1
2019-05-11T21:05:27.615Z,72.9
2019-05-11T21:10:28.389Z,73.9
2019-05-11T21:15:28.414Z,75.7
2019-05-11T21:20:29.146Z,76.3
2019-05-11T21:25:29.079Z,77.4
2019-05-11T21:30:28.376Z,77.7
2019-05-11T21:35:28.424Z,79
2019-05-11T21:40:31.467Z,77.2
2019-05-11T21:45:30.637Z,79
2019-05-11T21:50:30.175Z,78.3
2019-05-11T21:55:29.938Z,78.2
2019-05-11T22:00:29.573Z,78.6
2019-05-11T22:05:29.351Z,77.5
2019-05-11T22:10:29.122Z,77.5
2019-05-11T22:15:31.124Z,79.4
2019-05-11T22:20:30.182Z,78.4
2019-05-11T22:25:29.854Z,78.2
2019-05-11T22:30:29.608Z,79.1
2019-05-11T22:35:29.341Z,79.1
2019-05-11T22:40:29.090Z,78.8
2019-05-11T22:45:28.840Z,78.5
2019-05-11T22:50:29.411Z,78.2
2019-05-11T22:55:28.818Z,79.8
2019-05-11T23:00:28.413Z,80.1
2019-05-11T23:05:30.130Z,82.1
2019-05-11T23:10:29.414Z,79.7
2019-05-11T23:15:29.058Z,78
2019-05-11T23:20:30.368Z,79.9
2019-05-11T23:25:29.652Z,80.8
2019-05-11T23:30:29.191Z,79.6
2019-05-11T23:35:29.115Z,81.8
2019-05-11T23:40:28.767Z,82.4
2019-05-11T23:45:28.440Z,83.2
2019-05-11T23:50:28.469Z,82.9
2019-05-11T23:55:29.262Z,84
